Goodland, Kansas
Current Conditions -  °F | °C
As of 8:53 PM on Wednesday 22 Oct 2014 (Local Time) from KGLD Reporting Station
Clear Clear  
Wind Chill: 51°   Ceiling: Unl
Heat Index: 51°   Visibility: 10mi
Dew Point: 45°   Wind: 6mph
Humidity: 80%   Direction: 110°ESE
Pressure: 30.1"   Gusts: NA
Location:  39.35°N, 101.71°W
Report Text: KGLD 230253Z AUTO 11005KT 10SM CLR 11/07 A3010 RMK AO2 SLP179 T01060072 51017
Loading
Personal Weather Stations






























Interactive Weather Map
Tropical Storm Tracking
New forecast layout! Learn more

10-Day Weather Forecast

Advertisements
Track Severe Weather on mobile